Blairsville, Indiana
Current Conditions -  °F | °C
As of 10:54 AM on Friday 21 Nov 2014 (Local Time) from KEVV Reporting Station
Clear Clear  
Wind Chill: 29°   Ceiling: Unl
Heat Index: 35°   Visibility: 10mi
Dew Point: 17°   Wind: 7mph
Humidity: 48%   Direction: 110°ESE
Pressure: 30.49"   Gusts: NA
Location:  38.0787°N, 87.7717°W
Report Text: KEVV 211654Z 11006KT 10SM CLR 02/M08 A3049 RMK AO2 SLP330 T00171083
Loading
Personal Weather Stations






























Interactive Weather Map New forecast layout! Learn more

10-Day Weather Forecast

Advertisements
Track Severe Weather on mobile